createdAt,value
2022-09-07T00:00:43.210Z,101114.06
2022-09-07T00:03:10.202Z,101115.28
2022-09-07T00:05:48.087Z,101104.72
2022-09-07T00:08:16.634Z,101103.75
2022-09-07T00:10:58.805Z,101106.66
2022-09-07T00:13:28.645Z,101110.00
2022-09-07T00:15:55.750Z,101103.28
2022-09-07T00:18:22.444Z,101113.09
2022-09-07T00:21:02.045Z,101110.59
2022-09-07T00:23:30.230Z,101117.31
2022-09-07T00:26:01.983Z,101118.16
2022-09-07T00:28:29.399Z,101118.75
2022-09-07T00:30:56.067Z,101124.63
2022-09-07T00:33:22.791Z,101128.94
2022-09-07T00:35:49.511Z,101140.72
2022-09-07T00:38:16.397Z,101132.19
2022-09-07T00:40:43.507Z,101133.75
2022-09-07T00:43:17.490Z,101131.81
2022-09-07T00:45:44.182Z,101121.63
2022-09-07T00:48:19.999Z,101124.25
2022-09-07T01:29:40.425Z,100991.50
2022-09-07T01:46:26.958Z,100956.59
2022-09-07T01:48:57.963Z,100960.22
2022-09-07T01:51:31.552Z,100951.34
2022-09-07T01:54:03.160Z,100957.44
2022-09-07T01:56:52.085Z,100956.97
2022-09-07T01:59:27.395Z,100970.41
2022-09-07T02:02:02.057Z,100970.66
2022-09-07T02:04:37.719Z,100964.31
2022-09-07T02:07:17.305Z,100964.66
2022-09-07T02:09:56.968Z,100972.69
2022-09-07T02:12:31.054Z,100974.50
2022-09-07T02:22:12.191Z,100967.06
2022-09-07T02:24:43.200Z,100968.03
2022-09-07T02:27:15.135Z,100971.13
2022-09-07T02:29:43.696Z,100958.16
2022-09-07T02:32:10.429Z,100964.38
2022-09-07T02:34:37.278Z,100956.00
2022-09-07T02:37:07.905Z,100964.00
2022-09-07T02:39:35.057Z,100963.19
2022-09-07T02:42:01.860Z,100962.34
2022-09-07T02:44:35.663Z,100958.16
2022-09-07T02:47:24.375Z,100955.53
2022-09-07T02:50:09.251Z,100952.06
2022-09-07T02:53:01.963Z,100951.44
2022-09-07T02:55:34.538Z,100953.34
2022-09-07T02:58:07.250Z,100952.28
2022-09-07T03:00:43.468Z,100945.44
2022-09-07T03:14:16.271Z,100943.34
2022-09-07T03:16:43.465Z,100942.50
2022-09-07T03:19:10.180Z,100936.53
2022-09-07T03:21:36.805Z,100939.28
2022-09-07T03:24:03.690Z,100953.03
2022-09-07T03:26:30.419Z,100940.59
2022-09-07T03:28:57.560Z,100953.28
2022-09-07T03:31:24.394Z,100951.56
2022-09-07T03:33:51.079Z,100948.03
2022-09-07T03:36:17.756Z,100937.50
2022-09-07T03:38:44.511Z,100944.63
2022-09-07T03:41:11.144Z,100944.63
2022-09-07T03:43:37.712Z,100934.84
2022-09-07T03:46:06.892Z,100939.16
2022-09-07T03:48:35.152Z,100942.34
2022-09-07T03:51:04.647Z,100941.50
2022-09-07T03:53:32.908Z,100949.41
2022-09-07T03:56:02.246Z,100946.66
2022-09-07T03:58:30.492Z,100929.28
2022-09-07T04:00:58.179Z,100932.84
2022-09-07T04:03:25.339Z,100938.13
2022-09-07T04:05:52.119Z,100924.00
2022-09-07T04:08:18.859Z,100926.63
2022-09-07T04:10:45.502Z,100932.84
2022-09-07T04:13:12.094Z,100931.31
2022-09-07T04:15:38.691Z,100928.06
2022-09-07T04:18:05.365Z,100928.78
2022-09-07T04:20:31.971Z,100930.59
2022-09-07T04:22:58.596Z,100920.91
2022-09-07T04:25:25.291Z,100932.47
2022-09-07T04:27:51.939Z,100934.19
2022-09-07T04:30:18.576Z,100941.22
2022-09-07T04:32:46.727Z,100943.75
2022-09-07T04:35:13.797Z,100941.97
2022-09-07T04:37:40.507Z,100935.94
2022-09-07T04:40:07.535Z,100931.03
2022-09-07T04:42:34.193Z,100931.03
2022-09-07T04:45:00.887Z,100918.94
2022-09-07T04:47:30.715Z,100920.72
2022-09-07T04:49:57.451Z,100928.03
2022-09-07T04:52:24.661Z,100929.56
2022-09-07T04:54:51.811Z,100920.00
2022-09-07T04:57:21.841Z,100920.13
2022-09-07T04:59:48.888Z,100932.56
2022-09-07T05:02:15.929Z,100929.94
2022-09-07T05:04:42.722Z,100927.31
2022-09-07T05:07:09.479Z,100941.19
2022-09-07T05:09:36.778Z,100932.56
2022-09-07T05:12:03.434Z,100936.13
2022-09-07T05:14:30.044Z,100930.66
2022-09-07T05:16:56.690Z,100941.19
2022-09-07T05:19:23.484Z,100941.06
2022-09-07T05:21:50.119Z,100938.31
2022-09-07T05:24:16.858Z,100947.16
2022-09-07T05:26:43.503Z,100949.78
2022-09-07T05:31:57.042Z,100949.09
2022-09-07T05:34:32.321Z,100958.34
2022-09-07T05:36:59.579Z,100953.06
2022-09-07T05:39:26.974Z,100954.16
2022-09-07T05:41:54.184Z,100960.84
2022-09-07T05:47:07.720Z,100966.13
2022-09-07T05:49:34.744Z,100974.75
2022-09-07T05:52:01.378Z,100964.41
2022-09-07T05:54:27.974Z,100962.75
2022-09-07T05:56:54.606Z,100971.25
2022-09-07T05:59:21.217Z,100961.19
2022-09-07T06:01:47.919Z,100958.75
2022-09-07T06:04:14.563Z,100962.34
2022-09-07T06:06:41.259Z,100963.31
2022-09-07T06:09:08.167Z,100967.06
2022-09-07T06:11:36.479Z,100965.50
2022-09-07T06:14:03.126Z,100960.94
2022-09-07T06:16:33.315Z,100950.19
2022-09-07T06:18:59.972Z,100962.53
2022-09-07T06:21:26.852Z,100952.81
2022-09-07T06:23:53.477Z,100963.94
2022-09-07T06:26:20.252Z,100973.91
2022-09-07T06:28:50.253Z,100970.44
2022-09-07T06:31:22.914Z,100970.22
2022-09-07T06:33:50.872Z,100973.31
2022-09-07T06:36:20.060Z,100977.59
2022-09-07T06:38:47.575Z,100983.19
2022-09-07T06:44:09.376Z,100982.91
2022-09-07T06:49:23.943Z,100985.59
2022-09-07T06:51:50.556Z,100984.59
2022-09-07T06:57:09.140Z,100984.78
2022-09-07T06:59:36.758Z,100976.78
2022-09-07T07:02:04.163Z,100987.69
2022-09-07T07:04:31.822Z,100992.84
2022-09-07T07:06:59.402Z,100995.47
2022-09-07T07:09:26.079Z,100997.09
2022-09-07T07:11:52.678Z,101007.66
2022-09-07T07:14:19.357Z,101019.88
2022-09-07T07:16:46.786Z,101009.13
2022-09-07T07:19:13.644Z,101016.34
2022-09-07T07:22:03.550Z,101021.63
2022-09-07T07:24:26.834Z,101032.41
2022-09-07T07:26:53.630Z,101039.91
2022-09-07T07:29:21.926Z,101038.78
2022-09-07T07:31:49.513Z,101045.66
2022-09-07T07:34:16.188Z,101044.72
2022-09-07T07:36:42.785Z,101048.69
2022-09-07T07:41:58.999Z,101052.03
2022-09-07T07:44:28.386Z,101063.94
2022-09-07T07:46:54.969Z,101060.53
2022-09-07T07:49:21.793Z,101057.00
2022-09-07T07:54:38.473Z,101049.84
2022-09-07T07:57:05.840Z,101050.00
2022-09-07T07:59:32.601Z,101056.56
2022-09-07T08:02:05.500Z,101059.47
2022-09-07T08:04:35.749Z,101061.06
2022-09-07T08:07:08.607Z,101076.19
2022-09-07T08:09:37.357Z,101084.34
2022-09-07T08:12:04.138Z,101083.38
2022-09-07T08:14:30.734Z,101077.84
2022-09-07T08:16:57.325Z,101067.31
2022-09-07T08:19:23.839Z,101068.38
2022-09-07T08:21:50.302Z,101061.28
2022-09-07T08:24:16.841Z,101068.63
2022-09-07T08:26:43.400Z,101059.16
2022-09-07T08:29:09.898Z,101062.84
2022-09-07T08:31:36.493Z,101064.66
2022-09-07T08:34:03.070Z,101056.03
2022-09-07T08:36:31.854Z,101056.25
2022-09-07T08:38:58.430Z,101048.34
2022-09-07T08:41:30.768Z,101047.41
2022-09-07T08:44:00.423Z,101045.97
2022-09-07T08:46:36.182Z,101059.41
2022-09-07T08:49:06.141Z,101072.81
2022-09-07T08:51:46.878Z,101079.31
2022-09-07T08:54:16.712Z,101083.84
2022-09-07T09:00:14.472Z,101081.69
2022-09-07T09:02:44.260Z,101080.84
2022-09-07T09:05:20.285Z,101082.88
2022-09-07T09:08:15.717Z,101077.94
2022-09-07T09:11:11.639Z,101077.38
2022-09-07T09:13:56.921Z,101076.53
2022-09-07T09:16:35.858Z,101071.06
2022-09-07T09:19:24.672Z,101069.59
2022-09-07T09:22:07.740Z,101072.47
2022-09-07T09:24:37.794Z,101070.88
2022-09-07T09:27:04.427Z,101067.31
2022-09-07T09:29:30.918Z,101072.06
2022-09-07T09:31:57.457Z,101076.59
2022-09-07T09:34:29.329Z,101080.41
2022-09-07T09:36:57.901Z,101065.53
2022-09-07T09:39:37.277Z,101067.59
2022-09-07T09:42:23.784Z,101079.03
2022-09-07T09:44:50.907Z,101090.28
2022-09-07T09:47:30.234Z,101089.91
2022-09-07T09:49:59.652Z,101094.47
2022-09-07T09:52:36.981Z,101093.63
2022-09-07T09:55:35.894Z,101095.63
2022-09-07T10:01:33.557Z,101091.66
2022-09-07T10:04:27.998Z,101091.94
2022-09-07T10:07:06.103Z,101081.66
2022-09-07T10:09:40.099Z,101086.16
2022-09-07T10:12:08.821Z,101087.41
2022-09-07T10:14:42.270Z,101090.50
2022-09-07T10:17:25.718Z,101089.94
2022-09-07T10:19:52.614Z,101086.72
2022-09-07T10:22:31.243Z,101093.72
2022-09-07T10:25:00.931Z,101099.00
2022-09-07T10:27:30.129Z,101101.78
2022-09-07T10:29:57.270Z,101101.47
2022-09-07T10:32:52.825Z,101106.31
2022-09-07T10:35:38.707Z,101110.63
2022-09-07T10:38:28.895Z,101101.75
2022-09-07T10:41:09.785Z,101096.44
2022-09-07T10:43:42.416Z,101088.06
2022-09-07T10:46:58.755Z,101085.72
2022-09-07T10:52:41.727Z,101083.59
2022-09-07T10:55:20.315Z,101087.66
2022-09-07T10:58:03.054Z,101086.78
2022-09-07T11:00:58.751Z,101084.16
2022-09-07T11:03:53.069Z,101084.44
2022-09-07T11:06:30.345Z,101077.03
2022-09-07T11:09:18.599Z,101072.44
2022-09-07T11:12:04.338Z,101073.00
2022-09-07T11:14:38.817Z,101075.25
2022-09-07T11:17:18.608Z,101075.53
2022-09-07T11:19:47.990Z,101061.44
2022-09-07T11:22:18.079Z,101058.00
2022-09-07T11:27:51.313Z,101061.06
2022-09-07T11:30:21.687Z,101064.25
2022-09-07T11:32:55.466Z,101055.50
2022-09-07T11:35:47.281Z,101069.97
2022-09-07T11:38:29.021Z,101059.25
2022-09-07T11:41:06.342Z,101063.31
2022-09-07T11:43:41.348Z,101056.59
2022-09-07T11:46:15.873Z,101054.63
2022-09-07T11:48:58.003Z,101052.72
2022-09-07T11:51:44.956Z,101051.84
2022-09-07T11:54:17.381Z,101051.56
2022-09-07T11:56:50.377Z,101047.94
2022-09-07T11:59:36.759Z,101044.97
2022-09-07T12:02:36.700Z,101042.06
2022-09-07T12:05:23.724Z,101039.28
2022-09-07T12:07:50.290Z,101032.19
2022-09-07T12:10:35.740Z,101036.50
2022-09-07T12:13:20.625Z,101034.00
2022-09-07T12:15:59.470Z,101034.72
2022-09-07T12:18:41.326Z,101026.44
2022-09-07T12:21:30.853Z,101031.19
2022-09-07T12:23:57.666Z,101027.94
2022-09-07T12:26:33.605Z,101028.16
2022-09-07T12:29:00.087Z,101030.09
2022-09-07T12:31:57.795Z,101023.97
2022-09-07T12:34:31.288Z,101022.16
2022-09-07T12:37:10.099Z,101024.38
2022-09-07T12:39:43.426Z,101022.44
2022-09-07T12:45:30.999Z,101011.31
2022-09-07T12:48:00.095Z,101016.03
2022-09-07T12:50:29.579Z,101018.59
2022-09-07T12:53:28.062Z,101014.03
2022-09-07T12:56:16.291Z,101016.00
2022-09-07T12:59:31.434Z,101014.13
2022-09-07T13:02:35.401Z,101007.47
2022-09-07T13:05:24.773Z,100997.88
2022-09-07T13:08:09.719Z,101000.06
2022-09-07T13:10:39.737Z,100996.44
2022-09-07T13:13:14.683Z,100992.81
2022-09-07T13:16:14.951Z,100994.81
2022-09-07T13:18:46.425Z,100978.59
2022-09-07T13:21:15.337Z,100977.78
2022-09-07T13:23:45.508Z,100975.66
2022-09-07T13:26:51.306Z,100979.44
2022-09-07T13:29:24.103Z,100981.16
2022-09-07T13:31:50.682Z,100979.44
2022-09-07T13:34:37.531Z,100970.22
2022-09-07T13:37:19.593Z,100966.19
2022-09-07T13:39:48.579Z,100965.69
2022-09-07T13:42:18.729Z,100967.53
2022-09-07T13:44:54.684Z,100964.53
2022-09-07T13:47:32.644Z,100958.97
2022-09-07T13:49:59.131Z,100955.63
2022-09-07T13:52:40.756Z,100950.97
2022-09-07T13:55:28.378Z,100958.88
2022-09-07T13:58:13.020Z,100951.56
2022-09-07T14:00:55.034Z,100939.22
2022-09-07T14:03:24.371Z,100939.03
2022-09-07T14:06:17.094Z,100943.72
2022-09-07T14:08:50.841Z,100948.34
2022-09-07T14:11:23.710Z,100939.66
2022-09-07T14:14:12.253Z,100939.13
2022-09-07T14:16:39.064Z,100932.19
2022-09-07T14:19:17.255Z,100929.34
2022-09-07T14:21:43.996Z,100925.63
2022-09-07T14:24:32.219Z,100926.00
2022-09-07T14:27:00.191Z,100931.97
2022-09-07T14:29:31.286Z,100927.81
2022-09-07T14:32:00.124Z,100929.50
2022-09-07T14:34:31.281Z,100928.25
2022-09-07T14:37:02.305Z,100921.44
2022-09-07T14:39:30.131Z,100919.31
2022-09-07T14:41:58.890Z,100926.47
2022-09-07T14:44:34.188Z,100925.47
2022-09-07T14:47:06.034Z,100935.59
2022-09-07T14:49:32.876Z,100933.75
2022-09-07T14:52:00.660Z,100931.44
2022-09-07T14:54:34.269Z,100927.97
2022-09-07T14:57:05.652Z,100924.00
2022-09-07T14:59:37.145Z,100918.16
2022-09-07T15:02:19.493Z,100921.59
2022-09-07T15:04:47.431Z,100918.78
2022-09-07T15:07:37.737Z,100916.09
2022-09-07T15:10:23.705Z,100911.31
2022-09-07T15:13:01.322Z,100912.72
2022-09-07T15:15:30.392Z,100918.78
2022-09-07T15:18:08.536Z,100923.66
2022-09-07T15:20:38.704Z,100918.50
2022-09-07T15:23:18.461Z,100918.28
2022-09-07T15:25:51.136Z,100910.09
2022-09-07T15:34:11.514Z,100910.75
2022-09-07T15:36:40.783Z,100911.50
2022-09-07T15:39:14.306Z,100906.56
2022-09-07T15:41:40.803Z,100909.53
2022-09-07T15:44:07.645Z,100903.91
2022-09-07T15:46:36.673Z,100904.59
2022-09-07T15:49:03.789Z,100900.88
2022-09-07T15:54:17.257Z,100900.34
2022-09-07T15:57:47.672Z,100906.19
2022-09-07T15:59:30.650Z,100897.84
2022-09-07T16:01:58.240Z,100892.47
2022-09-07T16:04:28.460Z,100887.63
2022-09-07T16:06:55.068Z,100890.38
2022-09-07T16:09:22.109Z,100889.28
2022-09-07T16:11:50.118Z,100882.66
2022-09-07T16:14:18.774Z,100874.63
2022-09-07T16:19:34.947Z,100872.94
2022-09-07T16:22:02.154Z,100878.00
2022-09-07T16:24:28.820Z,100870.81
2022-09-07T16:26:55.525Z,100878.25
2022-09-07T16:29:22.072Z,100867.63
2022-09-07T16:34:35.266Z,100868.00
2022-09-07T16:37:01.851Z,100861.31
2022-09-07T16:39:32.078Z,100860.31
2022-09-07T16:42:00.089Z,100868.28
2022-09-07T16:44:26.813Z,100866.34
2022-09-07T16:46:53.383Z,100866.59
2022-09-07T16:49:20.027Z,100866.19
2022-09-07T16:51:46.637Z,100870.50
2022-09-07T16:54:14.355Z,100864.19
2022-09-07T16:56:40.875Z,100868.50
2022-09-07T16:59:11.608Z,100867.41
2022-09-07T17:01:38.486Z,100865.72
2022-09-07T17:04:10.313Z,100864.34
2022-09-07T17:06:37.515Z,100858.50
2022-09-07T17:09:04.262Z,100863.28
2022-09-07T17:11:34.033Z,100855.88
2022-09-07T17:14:01.318Z,100856.88
2022-09-07T17:16:30.797Z,100852.84
2022-09-07T17:21:46.516Z,100871.56
2022-09-07T17:24:13.132Z,100865.56
2022-09-07T17:26:42.324Z,100858.03
2022-09-07T17:29:10.446Z,100861.69
2022-09-07T17:34:24.560Z,100857.97
2022-09-07T17:36:51.630Z,100856.72
2022-09-07T17:39:19.336Z,100850.88
2022-09-07T17:41:48.441Z,100852.84
2022-09-07T17:44:15.295Z,100853.13
2022-09-07T17:46:41.799Z,100853.19
2022-09-07T17:49:16.649Z,100846.81
2022-09-07T17:51:44.005Z,100837.88
2022-09-07T17:54:14.373Z,100837.50
2022-09-07T17:56:42.020Z,100837.34
2022-09-07T18:01:56.570Z,100837.94
2022-09-07T18:04:23.650Z,100837.69
2022-09-07T18:06:50.711Z,100833.25
2022-09-07T18:09:17.600Z,100830.47
2022-09-07T18:11:45.735Z,100830.22
2022-09-07T18:14:14.715Z,100831.59
2022-09-07T18:16:42.551Z,100830.50
2022-09-07T18:19:11.118Z,100822.13
2022-09-07T18:21:39.323Z,100820.50
2022-09-07T18:24:13.523Z,100832.97
2022-09-07T18:26:40.914Z,100838.81
2022-09-07T18:29:25.810Z,100841.31
2022-09-07T18:31:54.599Z,100842.44
2022-09-07T18:34:21.369Z,100841.31
2022-09-07T18:36:48.060Z,100838.09
2022-09-07T18:39:14.722Z,100843.81
2022-09-07T18:41:42.209Z,100845.63
2022-09-07T18:46:55.924Z,100843.78
2022-09-07T18:49:22.532Z,100847.69
2022-09-07T18:54:35.764Z,100853.66
2022-09-07T18:57:02.221Z,100851.41
2022-09-07T18:59:29.810Z,100852.22
2022-09-07T19:02:01.306Z,100850.63
2022-09-07T19:07:17.747Z,100842.53
2022-09-07T19:09:44.280Z,100842.91
2022-09-07T19:12:10.756Z,100837.91
2022-09-07T19:14:37.413Z,100846.13
2022-09-07T19:17:04.019Z,100843.84
2022-09-07T19:19:30.643Z,100841.59
2022-09-07T19:21:58.344Z,100840.22
2022-09-07T19:24:25.801Z,100835.31
2022-09-07T19:26:55.699Z,100840.97
2022-09-07T19:29:25.245Z,100834.81
2022-09-07T19:32:06.762Z,100837.00
2022-09-07T19:34:35.758Z,100836.13
2022-09-07T19:37:02.894Z,100835.94
2022-09-07T19:39:29.450Z,100836.47
2022-09-07T19:41:56.316Z,100833.31
2022-09-07T19:44:22.845Z,100832.88
2022-09-07T19:46:49.563Z,100836.34
2022-09-07T19:49:16.346Z,100831.19
2022-09-07T19:51:45.263Z,100822.81
2022-09-07T19:54:13.288Z,100830.72
2022-09-07T19:56:42.779Z,100821.97
2022-09-07T19:59:10.024Z,100833.13
2022-09-07T20:01:37.914Z,100823.69
2022-09-07T20:04:07.422Z,100824.75
2022-09-07T20:06:38.058Z,100819.63
2022-09-07T20:09:05.150Z,100818.78
2022-09-07T20:11:32.654Z,100808.47
2022-09-07T20:13:59.439Z,100814.97
2022-09-07T20:16:28.106Z,100804.47
2022-09-07T20:18:54.804Z,100798.75
2022-09-07T20:21:23.574Z,100802.31
2022-09-07T20:23:51.063Z,100805.09
2022-09-07T20:26:20.037Z,100799.81
2022-09-07T20:29:01.935Z,100788.44
2022-09-07T20:31:38.788Z,100788.94
2022-09-07T20:34:05.590Z,100785.00
2022-09-07T20:36:32.318Z,100779.16
2022-09-07T20:38:58.785Z,100775.81
2022-09-07T20:41:31.284Z,100777.03
2022-09-07T20:44:00.180Z,100770.56
2022-09-07T20:46:28.421Z,100780.41
2022-09-07T20:48:55.238Z,100777.91
2022-09-07T20:51:22.159Z,100769.16
2022-09-07T20:53:49.329Z,100777.06
2022-09-07T20:56:24.876Z,100772.03
2022-09-07T20:59:02.496Z,100762.09
2022-09-07T21:01:31.493Z,100765.56
2022-09-07T21:04:00.882Z,100768.00
2022-09-07T21:06:28.763Z,100770.63
2022-09-07T21:08:57.901Z,100765.97
2022-09-07T21:11:35.228Z,100776.25
2022-09-07T21:14:22.600Z,100774.34
2022-09-07T21:16:49.080Z,100773.25
2022-09-07T21:19:15.805Z,100771.59
2022-09-07T21:21:43.057Z,100767.16
2022-09-07T21:24:21.907Z,100765.56
2022-09-07T21:26:49.792Z,100759.47
2022-09-07T21:29:23.353Z,100762.38
2022-09-07T21:31:50.438Z,100768.47
2022-09-07T21:34:17.236Z,100755.66
2022-09-07T21:36:43.879Z,100749.81
2022-09-07T21:39:13.810Z,100742.88
2022-09-07T21:41:41.292Z,100750.34
2022-09-07T21:44:07.852Z,100748.81
2022-09-07T21:46:34.435Z,100749.63
2022-09-07T21:49:01.190Z,100753.72
2022-09-07T21:51:28.159Z,100750.56
2022-09-07T21:53:59.446Z,100749.50
2022-09-07T21:56:30.325Z,100743.16
2022-09-07T21:58:58.973Z,100739.56
2022-09-07T22:01:27.126Z,100749.97
2022-09-07T22:03:56.430Z,100749.97
2022-09-07T22:06:23.841Z,100751.06
2022-09-07T22:08:50.969Z,100752.16
2022-09-07T22:11:20.197Z,100745.31
2022-09-07T22:13:47.050Z,100738.84
2022-09-07T22:16:15.085Z,100738.28
2022-09-07T22:18:46.168Z,100738.00
2022-09-07T22:21:18.992Z,100739.09
2022-09-07T22:23:48.724Z,100735.28
2022-09-07T22:26:19.157Z,100727.13
2022-09-07T22:28:45.755Z,100735.59
2022-09-07T22:31:24.477Z,100735.25
2022-09-07T22:33:52.492Z,100731.28
2022-09-07T22:36:21.918Z,100723.97
2022-09-07T22:38:52.167Z,100720.63
2022-09-07T22:41:20.967Z,100716.59
2022-09-07T22:43:50.851Z,100712.50
2022-09-07T22:46:19.827Z,100719.72
2022-09-07T22:48:46.732Z,100716.81
2022-09-07T22:51:13.359Z,100718.34
2022-09-07T22:53:41.810Z,100726.59
2022-09-07T22:56:09.679Z,100733.19
2022-09-07T22:58:37.520Z,100727.56
2022-09-07T23:01:05.712Z,100727.06
2022-09-07T23:03:34.534Z,100718.44
2022-09-07T23:06:01.587Z,100712.94
2022-09-07T23:08:28.219Z,100704.88
2022-09-07T23:10:54.724Z,100693.78
2022-09-07T23:13:21.330Z,100685.16
2022-09-07T23:15:48.417Z,100693.19
2022-09-07T23:18:16.693Z,100686.50
2022-09-07T23:20:43.345Z,100687.56
2022-09-07T23:23:10.600Z,100688.53
2022-09-07T23:25:38.163Z,100689.22
2022-09-07T23:28:07.299Z,100677.72
2022-09-07T23:30:35.728Z,100677.63
2022-09-07T23:33:02.979Z,100667.47
2022-09-07T23:35:29.784Z,100665.91
2022-09-07T23:37:56.902Z,100663.38
2022-09-07T23:40:23.925Z,100652.50
2022-09-07T23:42:50.551Z,100647.34
2022-09-07T23:45:17.146Z,100649.28
2022-09-07T23:47:44.004Z,100647.59
2022-09-07T23:50:10.973Z,100647.59
2022-09-07T23:52:38.002Z,100638.75
2022-09-07T23:55:04.859Z,100640.41
2022-09-07T23:57:31.662Z,100640.53
2022-09-07T23:59:58.872Z,100628.44
